sensor_id;sensor_type;location;lat;lon;timestamp;P1;durP1;ratioP1;P2;durP2;ratioP2
43682;SDS011;29285;52.128;21.060;2024-01-30T00:02:36;23.00;;;15.50;;
43682;SDS011;29285;52.128;21.060;2024-01-30T00:07:37;27.20;;;15.30;;
43682;SDS011;29285;52.128;21.060;2024-01-30T00:12:38;30.60;;;17.40;;
43682;SDS011;29285;52.128;21.060;2024-01-30T00:17:39;32.70;;;17.90;;
43682;SDS011;29285;52.128;21.060;2024-01-30T00:22:40;28.90;;;17.50;;
43682;SDS011;29285;52.128;21.060;2024-01-30T00:27:41;30.60;;;16.30;;
43682;SDS011;29285;52.128;21.060;2024-01-30T00:32:42;30.10;;;16.10;;
43682;SDS011;29285;52.128;21.060;2024-01-30T00:37:43;29.00;;;16.70;;
43682;SDS011;29285;52.128;21.060;2024-01-30T00:42:44;26.00;;;15.20;;
43682;SDS011;29285;52.128;21.060;2024-01-30T00:47:45;28.20;;;16.20;;
43682;SDS011;29285;52.128;21.060;2024-01-30T00:52:46;28.90;;;16.10;;
43682;SDS011;29285;52.128;21.060;2024-01-30T00:57:47;30.90;;;15.70;;
43682;SDS011;29285;52.128;21.060;2024-01-30T01:02:48;26.90;;;15.70;;
43682;SDS011;29285;52.128;21.060;2024-01-30T01:07:50;24.70;;;16.40;;
43682;SDS011;29285;52.128;21.060;2024-01-30T01:12:51;28.40;;;16.60;;
43682;SDS011;29285;52.128;21.060;2024-01-30T01:17:51;31.70;;;16.50;;
43682;SDS011;29285;52.128;21.060;2024-01-30T01:22:52;25.60;;;15.80;;
43682;SDS011;29285;52.128;21.060;2024-01-30T01:27:53;27.50;;;15.50;;
43682;SDS011;29285;52.128;21.060;2024-01-30T01:32:54;26.30;;;15.70;;
43682;SDS011;29285;52.128;21.060;2024-01-30T01:37:57;24.80;;;15.00;;
43682;SDS011;29285;52.128;21.060;2024-01-30T01:43:02;25.00;;;13.80;;
43682;SDS011;29285;52.128;21.060;2024-01-30T01:48:04;24.70;;;13.30;;
43682;SDS011;29285;52.128;21.060;2024-01-30T01:53:06;24.30;;;14.10;;
43682;SDS011;29285;52.128;21.060;2024-01-30T01:58:08;26.70;;;16.70;;
43682;SDS011;29285;52.128;21.060;2024-01-30T02:03:10;24.70;;;14.00;;
43682;SDS011;29285;52.128;21.060;2024-01-30T02:08:14;25.40;;;15.00;;
43682;SDS011;29285;52.128;21.060;2024-01-30T02:13:15;26.50;;;15.20;;
43682;SDS011;29285;52.128;21.060;2024-01-30T02:18:16;25.70;;;15.80;;
43682;SDS011;29285;52.128;21.060;2024-01-30T02:23:17;26.90;;;15.30;;
43682;SDS011;29285;52.128;21.060;2024-01-30T02:28:20;26.40;;;13.90;;
43682;SDS011;29285;52.128;21.060;2024-01-30T02:33:21;25.10;;;14.90;;
43682;SDS011;29285;52.128;21.060;2024-01-30T02:38:23;22.00;;;13.50;;
43682;SDS011;29285;52.128;21.060;2024-01-30T02:43:24;21.30;;;12.50;;
43682;SDS011;29285;52.128;21.060;2024-01-30T02:48:24;26.10;;;15.70;;
43682;SDS011;29285;52.128;21.060;2024-01-30T02:53:26;24.90;;;15.30;;
43682;SDS011;29285;52.128;21.060;2024-01-30T02:58:26;23.80;;;15.90;;
43682;SDS011;29285;52.128;21.060;2024-01-30T03:03:27;25.90;;;14.30;;
43682;SDS011;29285;52.128;21.060;2024-01-30T03:08:28;24.90;;;14.60;;
43682;SDS011;29285;52.128;21.060;2024-01-30T03:13:29;28.70;;;15.10;;
43682;SDS011;29285;52.128;21.060;2024-01-30T03:18:31;25.80;;;14.20;;
43682;SDS011;29285;52.128;21.060;2024-01-30T03:23:32;24.10;;;14.60;;
43682;SDS011;29285;52.128;21.060;2024-01-30T03:28:33;30.20;;;16.70;;
43682;SDS011;29285;52.128;21.060;2024-01-30T03:33:34;23.50;;;14.20;;
43682;SDS011;29285;52.128;21.060;2024-01-30T03:38:35;22.00;;;13.40;;
43682;SDS011;29285;52.128;21.060;2024-01-30T03:43:36;25.80;;;14.00;;
43682;SDS011;29285;52.128;21.060;2024-01-30T03:48:38;24.90;;;15.20;;
43682;SDS011;29285;52.128;21.060;2024-01-30T03:53:40;29.20;;;15.70;;
43682;SDS011;29285;52.128;21.060;2024-01-30T03:58:42;23.60;;;14.50;;
43682;SDS011;29285;52.128;21.060;2024-01-30T04:03:43;23.90;;;13.60;;
43682;SDS011;29285;52.128;21.060;2024-01-30T04:08:45;25.70;;;15.20;;
43682;SDS011;29285;52.128;21.060;2024-01-30T04:13:46;27.10;;;16.10;;
43682;SDS011;29285;52.128;21.060;2024-01-30T04:18:48;24.60;;;13.00;;
43682;SDS011;29285;52.128;21.060;2024-01-30T04:23:52;25.40;;;13.80;;
43682;SDS011;29285;52.128;21.060;2024-01-30T04:33:55;26.30;;;14.50;;
43682;SDS011;29285;52.128;21.060;2024-01-30T04:38:56;33.30;;;18.10;;
43682;SDS011;29285;52.128;21.060;2024-01-30T04:43:57;27.20;;;16.60;;
43682;SDS011;29285;52.128;21.060;2024-01-30T04:48:58;23.20;;;14.60;;
43682;SDS011;29285;52.128;21.060;2024-01-30T04:53:59;25.20;;;14.80;;
43682;SDS011;29285;52.128;21.060;2024-01-30T04:59:01;23.40;;;14.40;;
43682;SDS011;29285;52.128;21.060;2024-01-30T05:04:03;26.10;;;15.30;;
43682;SDS011;29285;52.128;21.060;2024-01-30T05:09:04;26.50;;;15.30;;
43682;SDS011;29285;52.128;21.060;2024-01-30T05:14:05;23.30;;;13.70;;
43682;SDS011;29285;52.128;21.060;2024-01-30T05:19:07;23.00;;;12.90;;
43682;SDS011;29285;52.128;21.060;2024-01-30T05:24:09;26.90;;;15.40;;
43682;SDS011;29285;52.128;21.060;2024-01-30T05:29:10;23.90;;;13.20;;
43682;SDS011;29285;52.128;21.060;2024-01-30T05:34:11;25.20;;;14.90;;
43682;SDS011;29285;52.128;21.060;2024-01-30T05:39:12;24.70;;;14.20;;
43682;SDS011;29285;52.128;21.060;2024-01-30T05:44:14;28.80;;;15.60;;
43682;SDS011;29285;52.128;21.060;2024-01-30T05:49:14;26.30;;;14.50;;
43682;SDS011;29285;52.128;21.060;2024-01-30T05:54:15;25.80;;;13.90;;
43682;SDS011;29285;52.128;21.060;2024-01-30T05:59:16;26.50;;;14.10;;
43682;SDS011;29285;52.128;21.060;2024-01-30T06:04:17;26.60;;;13.60;;
43682;SDS011;29285;52.128;21.060;2024-01-30T06:09:18;33.30;;;15.70;;
43682;SDS011;29285;52.128;21.060;2024-01-30T06:14:20;23.30;;;13.90;;
43682;SDS011;29285;52.128;21.060;2024-01-30T06:19:21;26.60;;;15.50;;
43682;SDS011;29285;52.128;21.060;2024-01-30T06:24:22;26.30;;;14.50;;
43682;SDS011;29285;52.128;21.060;2024-01-30T06:29:23;29.20;;;17.00;;
43682;SDS011;29285;52.128;21.060;2024-01-30T06:34:25;26.50;;;14.10;;
43682;SDS011;29285;52.128;21.060;2024-01-30T06:39:27;23.30;;;13.20;;
43682;SDS011;29285;52.128;21.060;2024-01-30T06:44:27;27.60;;;15.90;;
43682;SDS011;29285;52.128;21.060;2024-01-30T06:49:28;31.30;;;15.40;;
43682;SDS011;29285;52.128;21.060;2024-01-30T06:54:29;24.30;;;13.90;;
43682;SDS011;29285;52.128;21.060;2024-01-30T06:59:31;25.20;;;12.80;;
43682;SDS011;29285;52.128;21.060;2024-01-30T07:04:32;28.30;;;16.90;;
43682;SDS011;29285;52.128;21.060;2024-01-30T07:09:33;25.40;;;13.30;;
43682;SDS011;29285;52.128;21.060;2024-01-30T07:14:34;28.80;;;15.00;;
43682;SDS011;29285;52.128;21.060;2024-01-30T07:19:36;28.20;;;13.90;;
43682;SDS011;29285;52.128;21.060;2024-01-30T07:24:41;26.30;;;16.30;;
43682;SDS011;29285;52.128;21.060;2024-01-30T07:29:45;26.80;;;14.60;;
43682;SDS011;29285;52.128;21.060;2024-01-30T07:34:46;27.70;;;15.00;;
43682;SDS011;29285;52.128;21.060;2024-01-30T07:39:47;24.10;;;13.90;;
43682;SDS011;29285;52.128;21.060;2024-01-30T07:44:48;26.90;;;15.20;;
43682;SDS011;29285;52.128;21.060;2024-01-30T07:49:49;25.00;;;14.50;;
43682;SDS011;29285;52.128;21.060;2024-01-30T07:54:50;26.70;;;15.20;;
43682;SDS011;29285;52.128;21.060;2024-01-30T07:59:52;30.90;;;15.70;;
43682;SDS011;29285;52.128;21.060;2024-01-30T08:04:53;24.20;;;14.60;;
43682;SDS011;29285;52.128;21.060;2024-01-30T08:09:54;28.80;;;15.40;;
43682;SDS011;29285;52.128;21.060;2024-01-30T08:14:55;30.00;;;16.20;;
43682;SDS011;29285;52.128;21.060;2024-01-30T08:19:55;26.90;;;15.40;;
43682;SDS011;29285;52.128;21.060;2024-01-30T08:24:56;23.30;;;13.80;;
43682;SDS011;29285;52.128;21.060;2024-01-30T08:29:57;23.70;;;13.40;;
43682;SDS011;29285;52.128;21.060;2024-01-30T08:34:59;25.90;;;16.20;;
43682;SDS011;29285;52.128;21.060;2024-01-30T08:40:01;25.10;;;14.70;;
43682;SDS011;29285;52.128;21.060;2024-01-30T08:45:04;25.60;;;14.10;;
43682;SDS011;29285;52.128;21.060;2024-01-30T08:50:06;24.40;;;13.90;;
43682;SDS011;29285;52.128;21.060;2024-01-30T08:55:07;23.30;;;14.10;;
43682;SDS011;29285;52.128;21.060;2024-01-30T09:00:08;24.00;;;14.00;;
43682;SDS011;29285;52.128;21.060;2024-01-30T09:05:10;26.00;;;15.40;;
43682;SDS011;29285;52.128;21.060;2024-01-30T09:10:12;29.50;;;13.90;;
43682;SDS011;29285;52.128;21.060;2024-01-30T09:15:13;27.00;;;16.00;;
43682;SDS011;29285;52.128;21.060;2024-01-30T09:20:14;22.90;;;14.50;;
43682;SDS011;29285;52.128;21.060;2024-01-30T09:25:15;29.00;;;14.30;;
43682;SDS011;29285;52.128;21.060;2024-01-30T09:30:16;21.40;;;12.10;;
43682;SDS011;29285;52.128;21.060;2024-01-30T09:35:18;29.00;;;15.40;;
43682;SDS011;29285;52.128;21.060;2024-01-30T09:40:19;23.80;;;13.10;;
43682;SDS011;29285;52.128;21.060;2024-01-30T09:45:24;23.20;;;13.00;;
43682;SDS011;29285;52.128;21.060;2024-01-30T09:50:26;21.30;;;12.70;;
43682;SDS011;29285;52.128;21.060;2024-01-30T09:55:28;21.00;;;13.50;;
43682;SDS011;29285;52.128;21.060;2024-01-30T10:00:29;19.80;;;11.50;;
43682;SDS011;29285;52.128;21.060;2024-01-30T10:05:29;22.80;;;13.40;;
43682;SDS011;29285;52.128;21.060;2024-01-30T10:10:35;22.30;;;12.20;;
43682;SDS011;29285;52.128;21.060;2024-01-30T10:15:37;19.50;;;12.00;;
43682;SDS011;29285;52.128;21.060;2024-01-30T10:20:39;25.00;;;13.70;;
43682;SDS011;29285;52.128;21.060;2024-01-30T10:25:40;24.60;;;12.10;;
43682;SDS011;29285;52.128;21.060;2024-01-30T10:30:42;18.50;;;12.10;;
43682;SDS011;29285;52.128;21.060;2024-01-30T10:35:43;22.10;;;12.00;;
43682;SDS011;29285;52.128;21.060;2024-01-30T10:40:44;21.80;;;12.00;;
43682;SDS011;29285;52.128;21.060;2024-01-30T10:45:47;21.10;;;12.10;;
43682;SDS011;29285;52.128;21.060;2024-01-30T10:50:50;18.40;;;10.80;;
43682;SDS011;29285;52.128;21.060;2024-01-30T10:55:54;21.00;;;11.60;;
43682;SDS011;29285;52.128;21.060;2024-01-30T11:00:56;19.90;;;11.00;;
43682;SDS011;29285;52.128;21.060;2024-01-30T11:05:59;21.70;;;12.10;;
43682;SDS011;29285;52.128;21.060;2024-01-30T11:11:01;18.50;;;11.40;;
43682;SDS011;29285;52.128;21.060;2024-01-30T11:16:04;22.50;;;11.60;;
43682;SDS011;29285;52.128;21.060;2024-01-30T11:21:05;25.50;;;12.80;;
43682;SDS011;29285;52.128;21.060;2024-01-30T11:26:07;21.10;;;12.30;;
43682;SDS011;29285;52.128;21.060;2024-01-30T11:31:10;20.40;;;12.10;;
43682;SDS011;29285;52.128;21.060;2024-01-30T11:36:20;19.90;;;12.20;;
43682;SDS011;29285;52.128;21.060;2024-01-30T11:41:26;16.00;;;10.70;;
43682;SDS011;29285;52.128;21.060;2024-01-30T11:46:28;20.40;;;12.20;;
43682;SDS011;29285;52.128;21.060;2024-01-30T11:51:30;16.60;;;10.50;;
43682;SDS011;29285;52.128;21.060;2024-01-30T11:56:32;17.70;;;11.20;;
43682;SDS011;29285;52.128;21.060;2024-01-30T12:01:34;16.40;;;10.40;;
43682;SDS011;29285;52.128;21.060;2024-01-30T12:06:35;18.20;;;10.60;;
43682;SDS011;29285;52.128;21.060;2024-01-30T12:11:46;19.90;;;11.80;;
43682;SDS011;29285;52.128;21.060;2024-01-30T12:16:48;15.80;;;9.80;;
43682;SDS011;29285;52.128;21.060;2024-01-30T12:21:56;16.00;;;10.30;;
43682;SDS011;29285;52.128;21.060;2024-01-30T12:27:01;18.10;;;10.40;;
43682;SDS011;29285;52.128;21.060;2024-01-30T12:32:02;14.30;;;10.00;;
43682;SDS011;29285;52.128;21.060;2024-01-30T12:37:03;15.50;;;10.40;;
43682;SDS011;29285;52.128;21.060;2024-01-30T12:42:07;18.20;;;10.10;;
43682;SDS011;29285;52.128;21.060;2024-01-30T12:47:08;15.50;;;9.10;;
43682;SDS011;29285;52.128;21.060;2024-01-30T12:52:11;16.00;;;9.30;;
43682;SDS011;29285;52.128;21.060;2024-01-30T12:57:13;15.40;;;9.00;;
43682;SDS011;29285;52.128;21.060;2024-01-30T13:02:14;13.70;;;9.10;;
43682;SDS011;29285;52.128;21.060;2024-01-30T13:07:16;16.80;;;8.90;;
43682;SDS011;29285;52.128;21.060;2024-01-30T13:12:17;15.50;;;9.10;;
43682;SDS011;29285;52.128;21.060;2024-01-30T13:17:18;14.90;;;10.00;;
43682;SDS011;29285;52.128;21.060;2024-01-30T13:22:19;16.50;;;9.60;;
43682;SDS011;29285;52.128;21.060;2024-01-30T13:27:22;18.20;;;10.90;;
43682;SDS011;29285;52.128;21.060;2024-01-30T13:32:23;20.20;;;10.50;;
43682;SDS011;29285;52.128;21.060;2024-01-30T13:37:24;16.00;;;9.80;;
43682;SDS011;29285;52.128;21.060;2024-01-30T13:42:25;18.40;;;9.60;;
43682;SDS011;29285;52.128;21.060;2024-01-30T13:47:26;19.10;;;11.40;;
43682;SDS011;29285;52.128;21.060;2024-01-30T13:52:27;14.30;;;9.60;;
43682;SDS011;29285;52.128;21.060;2024-01-30T13:57:28;22.10;;;11.30;;
43682;SDS011;29285;52.128;21.060;2024-01-30T14:02:33;17.00;;;11.00;;
43682;SDS011;29285;52.128;21.060;2024-01-30T14:07:35;17.90;;;10.40;;
43682;SDS011;29285;52.128;21.060;2024-01-30T14:12:36;16.10;;;8.90;;
43682;SDS011;29285;52.128;21.060;2024-01-30T14:17:37;16.00;;;9.40;;
43682;SDS011;29285;52.128;21.060;2024-01-30T14:22:38;17.80;;;9.50;;
43682;SDS011;29285;52.128;21.060;2024-01-30T14:27:39;14.30;;;9.10;;
43682;SDS011;29285;52.128;21.060;2024-01-30T14:32:40;16.40;;;9.70;;
43682;SDS011;29285;52.128;21.060;2024-01-30T14:37:43;16.40;;;8.60;;
43682;SDS011;29285;52.128;21.060;2024-01-30T14:42:44;13.80;;;8.20;;
43682;SDS011;29285;52.128;21.060;2024-01-30T14:47:45;15.60;;;8.50;;
43682;SDS011;29285;52.128;21.060;2024-01-30T14:52:46;16.70;;;9.40;;
43682;SDS011;29285;52.128;21.060;2024-01-30T14:57:48;15.80;;;8.10;;
43682;SDS011;29285;52.128;21.060;2024-01-30T15:02:49;17.90;;;9.20;;
43682;SDS011;29285;52.128;21.060;2024-01-30T15:07:50;15.70;;;9.60;;
43682;SDS011;29285;52.128;21.060;2024-01-30T15:12:51;15.90;;;9.00;;
43682;SDS011;29285;52.128;21.060;2024-01-30T15:17:52;14.40;;;8.10;;
43682;SDS011;29285;52.128;21.060;2024-01-30T15:22:54;15.10;;;8.40;;
43682;SDS011;29285;52.128;21.060;2024-01-30T15:27:55;15.80;;;7.70;;
43682;SDS011;29285;52.128;21.060;2024-01-30T15:32:56;13.80;;;8.30;;
43682;SDS011;29285;52.128;21.060;2024-01-30T15:37:57;14.00;;;7.90;;
43682;SDS011;29285;52.128;21.060;2024-01-30T15:42:58;13.10;;;7.80;;
43682;SDS011;29285;52.128;21.060;2024-01-30T15:47:59;15.90;;;8.20;;
43682;SDS011;29285;52.128;21.060;2024-01-30T15:53:00;13.90;;;8.40;;
43682;SDS011;29285;52.128;21.060;2024-01-30T15:58:01;15.30;;;8.30;;
43682;SDS011;29285;52.128;21.060;2024-01-30T16:03:04;14.90;;;8.70;;
43682;SDS011;29285;52.128;21.060;2024-01-30T16:08:06;13.90;;;9.30;;
43682;SDS011;29285;52.128;21.060;2024-01-30T16:13:07;18.70;;;9.10;;
43682;SDS011;29285;52.128;21.060;2024-01-30T16:18:08;14.70;;;9.20;;
43682;SDS011;29285;52.128;21.060;2024-01-30T16:23:09;15.30;;;10.00;;
43682;SDS011;29285;52.128;21.060;2024-01-30T16:28:10;15.10;;;9.20;;
43682;SDS011;29285;52.128;21.060;2024-01-30T16:33:11;17.90;;;10.40;;
43682;SDS011;29285;52.128;21.060;2024-01-30T16:38:13;20.70;;;11.40;;
43682;SDS011;29285;52.128;21.060;2024-01-30T16:43:14;18.00;;;10.30;;
43682;SDS011;29285;52.128;21.060;2024-01-30T16:48:15;20.00;;;10.60;;
43682;SDS011;29285;52.128;21.060;2024-01-30T16:53:18;19.50;;;11.30;;
43682;SDS011;29285;52.128;21.060;2024-01-30T16:58:19;18.70;;;11.40;;
43682;SDS011;29285;52.128;21.060;2024-01-30T17:03:20;20.50;;;11.70;;
43682;SDS011;29285;52.128;21.060;2024-01-30T17:08:22;21.00;;;11.00;;
43682;SDS011;29285;52.128;21.060;2024-01-30T17:13:23;25.60;;;14.00;;
43682;SDS011;29285;52.128;21.060;2024-01-30T17:18:24;25.60;;;12.80;;
43682;SDS011;29285;52.128;21.060;2024-01-30T17:23:25;23.20;;;13.20;;
43682;SDS011;29285;52.128;21.060;2024-01-30T17:28:26;24.00;;;13.70;;
43682;SDS011;29285;52.128;21.060;2024-01-30T17:33:27;23.00;;;13.30;;
43682;SDS011;29285;52.128;21.060;2024-01-30T17:38:28;25.00;;;13.90;;
43682;SDS011;29285;52.128;21.060;2024-01-30T17:43:30;26.20;;;13.20;;
43682;SDS011;29285;52.128;21.060;2024-01-30T17:48:31;25.20;;;15.30;;
43682;SDS011;29285;52.128;21.060;2024-01-30T17:53:32;21.60;;;12.80;;
43682;SDS011;29285;52.128;21.060;2024-01-30T17:58:34;26.40;;;15.00;;
43682;SDS011;29285;52.128;21.060;2024-01-30T18:03:35;24.20;;;13.00;;
43682;SDS011;29285;52.128;21.060;2024-01-30T18:08:36;25.20;;;14.30;;
43682;SDS011;29285;52.128;21.060;2024-01-30T18:13:38;26.90;;;14.60;;
43682;SDS011;29285;52.128;21.060;2024-01-30T18:18:39;25.30;;;13.00;;
43682;SDS011;29285;52.128;21.060;2024-01-30T18:23:40;27.90;;;14.80;;
43682;SDS011;29285;52.128;21.060;2024-01-30T18:28:41;27.90;;;16.10;;
43682;SDS011;29285;52.128;21.060;2024-01-30T18:33:42;28.40;;;16.10;;
43682;SDS011;29285;52.128;21.060;2024-01-30T18:38:44;27.60;;;15.20;;
43682;SDS011;29285;52.128;21.060;2024-01-30T18:43:45;25.00;;;13.50;;
43682;SDS011;29285;52.128;21.060;2024-01-30T18:48:46;28.60;;;15.60;;
43682;SDS011;29285;52.128;21.060;2024-01-30T18:53:47;27.80;;;14.70;;
43682;SDS011;29285;52.128;21.060;2024-01-30T18:58:48;26.90;;;15.90;;
43682;SDS011;29285;52.128;21.060;2024-01-30T19:03:50;28.10;;;14.80;;
43682;SDS011;29285;52.128;21.060;2024-01-30T19:08:51;30.40;;;16.30;;
43682;SDS011;29285;52.128;21.060;2024-01-30T19:13:52;28.50;;;15.70;;
43682;SDS011;29285;52.128;21.060;2024-01-30T19:18:53;23.50;;;13.90;;
43682;SDS011;29285;52.128;21.060;2024-01-30T19:23:56;32.80;;;16.20;;
43682;SDS011;29285;52.128;21.060;2024-01-30T19:28:59;31.00;;;16.40;;
43682;SDS011;29285;52.128;21.060;2024-01-30T19:34:00;29.30;;;17.80;;
43682;SDS011;29285;52.128;21.060;2024-01-30T19:39:01;32.50;;;17.00;;
43682;SDS011;29285;52.128;21.060;2024-01-30T19:44:02;29.50;;;17.50;;
43682;SDS011;29285;52.128;21.060;2024-01-30T19:49:03;26.10;;;16.40;;
43682;SDS011;29285;52.128;21.060;2024-01-30T19:54:04;31.90;;;16.90;;
43682;SDS011;29285;52.128;21.060;2024-01-30T19:59:07;31.60;;;16.10;;
43682;SDS011;29285;52.128;21.060;2024-01-30T20:04:08;29.50;;;15.80;;
43682;SDS011;29285;52.128;21.060;2024-01-30T20:09:09;29.50;;;17.40;;
43682;SDS011;29285;52.128;21.060;2024-01-30T20:14:10;33.30;;;18.10;;
43682;SDS011;29285;52.128;21.060;2024-01-30T20:19:12;28.30;;;17.20;;
43682;SDS011;29285;52.128;21.060;2024-01-30T20:24:13;29.20;;;16.00;;
43682;SDS011;29285;52.128;21.060;2024-01-30T20:29:13;32.60;;;17.80;;
43682;SDS011;29285;52.128;21.060;2024-01-30T20:34:14;30.90;;;16.60;;
43682;SDS011;29285;52.128;21.060;2024-01-30T20:39:15;34.20;;;17.90;;
43682;SDS011;29285;52.128;21.060;2024-01-30T20:44:16;29.60;;;17.20;;
43682;SDS011;29285;52.128;21.060;2024-01-30T20:49:18;29.00;;;17.80;;
43682;SDS011;29285;52.128;21.060;2024-01-30T20:54:19;36.40;;;18.00;;
43682;SDS011;29285;52.128;21.060;2024-01-30T20:59:20;32.50;;;19.20;;
43682;SDS011;29285;52.128;21.060;2024-01-30T21:04:21;30.40;;;17.70;;
43682;SDS011;29285;52.128;21.060;2024-01-30T21:09:22;31.60;;;18.90;;
43682;SDS011;29285;52.128;21.060;2024-01-30T21:14:23;31.80;;;18.30;;
43682;SDS011;29285;52.128;21.060;2024-01-30T21:19:25;29.20;;;17.10;;
43682;SDS011;29285;52.128;21.060;2024-01-30T21:24:26;31.00;;;18.70;;
43682;SDS011;29285;52.128;21.060;2024-01-30T21:29:27;32.70;;;17.10;;
43682;SDS011;29285;52.128;21.060;2024-01-30T21:34:29;32.20;;;17.50;;
43682;SDS011;29285;52.128;21.060;2024-01-30T21:39:30;27.90;;;15.00;;
43682;SDS011;29285;52.128;21.060;2024-01-30T21:44:31;29.80;;;16.90;;
43682;SDS011;29285;52.128;21.060;2024-01-30T21:49:32;30.50;;;15.80;;
43682;SDS011;29285;52.128;21.060;2024-01-30T21:54:34;29.90;;;17.40;;
43682;SDS011;29285;52.128;21.060;2024-01-30T21:59:35;32.50;;;17.90;;
43682;SDS011;29285;52.128;21.060;2024-01-30T22:04:36;31.50;;;16.50;;
43682;SDS011;29285;52.128;21.060;2024-01-30T22:09:38;30.40;;;17.20;;
43682;SDS011;29285;52.128;21.060;2024-01-30T22:14:38;33.20;;;17.20;;
43682;SDS011;29285;52.128;21.060;2024-01-30T22:19:40;29.00;;;16.80;;
43682;SDS011;29285;52.128;21.060;2024-01-30T22:24:41;26.50;;;14.90;;
43682;SDS011;29285;52.128;21.060;2024-01-30T22:29:42;28.90;;;16.00;;
43682;SDS011;29285;52.128;21.060;2024-01-30T22:34:43;30.10;;;16.70;;
43682;SDS011;29285;52.128;21.060;2024-01-30T22:39:44;30.40;;;15.60;;
43682;SDS011;29285;52.128;21.060;2024-01-30T22:44:45;24.70;;;14.40;;
43682;SDS011;29285;52.128;21.060;2024-01-30T22:49:47;27.50;;;14.40;;
43682;SDS011;29285;52.128;21.060;2024-01-30T22:54:48;28.50;;;15.50;;
43682;SDS011;29285;52.128;21.060;2024-01-30T22:59:49;29.00;;;15.30;;
43682;SDS011;29285;52.128;21.060;2024-01-30T23:04:50;28.00;;;15.40;;
43682;SDS011;29285;52.128;21.060;2024-01-30T23:09:51;23.70;;;12.90;;
43682;SDS011;29285;52.128;21.060;2024-01-30T23:14:52;23.30;;;14.50;;
43682;SDS011;29285;52.128;21.060;2024-01-30T23:19:53;23.10;;;12.70;;
43682;SDS011;29285;52.128;21.060;2024-01-30T23:24:54;23.00;;;14.60;;
43682;SDS011;29285;52.128;21.060;2024-01-30T23:29:55;22.70;;;13.50;;
43682;SDS011;29285;52.128;21.060;2024-01-30T23:34:56;26.80;;;14.50;;
43682;SDS011;29285;52.128;21.060;2024-01-30T23:39:57;24.60;;;13.00;;
43682;SDS011;29285;52.128;21.060;2024-01-30T23:44:58;25.40;;;12.10;;
43682;SDS011;29285;52.128;21.060;2024-01-30T23:49:59;20.40;;;11.50;;
43682;SDS011;29285;52.128;21.060;2024-01-30T23:55:00;24.80;;;13.70;;
